Time;durP1;ratioP1;P1;durP2;ratioP2;P2;SDS_P1;SDS_P2;PMS_P1;PMS_P2;Temp;Humidity;BMP_temperature;BMP_pressure;BME280_temperature;BME280_humidity;BME280_pressure;Samples;Min_cycle;Max_cycle;Signal;HPM_P1;HPM_P2
2022/06/26 00:02:08;;;;;;;26.60;25.20;;;20.00;78.40;;;;;;4987061;28;20829;-70
2022/06/26 00:04:35;;;;;;;28.30;26.80;;;20.00;78.70;;;;;;4989924;28;20458;-71
2022/06/26 00:07:03;;;;;;;27.53;25.73;;;20.00;78.70;;;;;;4989186;28;20499;-75
2022/06/26 00:09:30;;;;;;;27.20;25.63;;;20.00;78.50;;;;;;4987617;28;20474;-74
2022/06/26 00:11:58;;;;;;;29.10;27.27;;;20.00;78.30;;;;;;4987232;28;20961;-71
2022/06/26 00:14:26;;;;;;;28.07;26.57;;;20.00;78.30;;;;;;4987854;28;20546;-71
2022/06/26 00:16:53;;;;;;;27.20;25.50;;;20.00;78.30;;;;;;4989587;28;20549;-71
2022/06/26 00:19:21;;;;;;;26.90;25.43;;;20.00;78.30;;;;;;4988026;28;20487;-70
2022/06/26 00:21:48;;;;;;;27.70;26.30;;;20.00;78.20;;;;;;4986271;28;20547;-73
2022/06/26 00:24:15;;;;;;;26.90;25.50;;;20.00;78.20;;;;;;4987323;28;20498;-75
2022/06/26 00:26:42;;;;;;;26.77;25.37;;;20.00;78.20;;;;;;4989434;28;20501;-70
2022/06/26 00:29:09;;;;;;;26.30;24.90;;;20.00;78.10;;;;;;4988060;28;20809;-72
2022/06/26 00:31:37;;;;;;;26.77;25.37;;;20.00;78.00;;;;;;4987154;28;20471;-70
2022/06/26 00:34:04;;;;;;;25.87;24.57;;;20.10;78.00;;;;;;4988830;28;20463;-70
2022/06/26 00:36:31;;;;;;;24.83;23.53;;;20.10;78.00;;;;;;4988017;28;21017;-73
2022/06/26 00:38:58;;;;;;;24.87;23.57;;;20.10;78.20;;;;;;4991022;28;20462;-70
2022/06/26 00:41:25;;;;;;;26.50;24.83;;;20.10;77.50;;;;;;4986003;28;20949;-71
2022/06/26 00:43:52;;;;;;;26.90;25.50;;;20.10;76.90;;;;;;4988629;28;20462;-72
2022/06/26 00:46:19;;;;;;;25.93;24.53;;;20.20;76.90;;;;;;4988924;28;20555;-73
2022/06/26 00:48:47;;;;;;;26.57;25.00;;;20.30;76.60;;;;;;4988215;28;20476;-71
2022/06/26 00:51:14;;;;;;;26.30;25.00;;;20.30;76.50;;;;;;4986914;28;20480;-70
2022/06/26 00:53:41;;;;;;;26.60;25.10;;;20.30;76.60;;;;;;4988492;28;20481;-72
2022/06/26 00:56:10;;;;;;;25.93;24.53;;;20.20;76.70;;;;;;4988256;28;20837;-70
2022/06/26 00:58:36;;;;;;;26.93;25.53;;;20.20;76.80;;;;;;4988329;28;20501;-69
2022/06/26 01:01:03;;;;;;;25.37;23.97;;;20.10;77.20;;;;;;4986470;28;20557;-68
2022/06/26 01:03:30;;;;;;;25.87;24.37;;;20.10;77.40;;;;;;4988758;28;20602;-71
2022/06/26 01:05:59;;;;;;;25.70;24.30;;;20.10;76.80;;;;;;4988877;28;20548;-77
2022/06/26 01:08:26;;;;;;;26.40;24.90;;;20.20;76.20;;;;;;4987427;28;20487;-72
2022/06/26 01:10:53;;;;;;;25.50;24.23;;;20.30;75.80;;;;;;4986298;28;20988;-73
2022/06/26 01:13:20;;;;;;;25.87;24.20;;;20.50;75.10;;;;;;4988457;28;21233;-73
2022/06/26 01:15:47;;;;;;;25.37;24.07;;;20.60;74.40;;;;;;4988996;28;20538;-76
2022/06/26 01:18:14;;;;;;;25.70;24.40;;;20.60;74.30;;;;;;4987872;28;20563;-70
2022/06/26 01:20:41;;;;;;;25.77;24.47;;;20.70;74.20;;;;;;4988499;28;20540;-76
2022/06/26 01:23:10;;;;;;;25.70;24.40;;;20.70;74.20;;;;;;4985640;28;20461;-70
2022/06/26 01:25:45;;;;;;;26.33;24.93;;;20.80;74.00;;;;;;4987300;28;20548;-70
2022/06/26 01:28:12;;;;;;;26.20;24.80;;;20.90;73.80;;;;;;4988932;28;20495;-73
2022/06/26 01:30:39;;;;;;;25.27;23.97;;;20.90;73.70;;;;;;4987694;28;20489;-72
2022/06/26 01:33:08;;;;;;;26.30;25.00;;;21.00;73.50;;;;;;4986689;28;20459;-69
2022/06/26 01:35:35;;;;;;;26.00;24.70;;;21.00;73.50;;;;;;4985561;28;20604;-69
2022/06/26 01:38:12;;;;;;;26.10;24.80;;;21.10;73.60;;;;;;4990108;28;20510;-69
2022/06/26 01:40:39;;;;;;;27.67;26.13;;;21.10;73.00;;;;;;4987195;28;20556;-68
2022/06/26 01:43:08;;;;;;;26.43;25.10;;;21.10;72.80;;;;;;4987792;28;20539;-68
2022/06/26 01:45:42;;;;;;;26.00;24.60;;;21.20;72.70;;;;;;4984912;28;20479;-69
2022/06/26 01:48:09;;;;;;;26.30;24.90;;;21.30;72.20;;;;;;4987023;28;20591;-68
2022/06/26 01:50:36;;;;;;;26.57;25.17;;;21.30;72.20;;;;;;4984001;28;20810;-68
2022/06/26 01:53:03;;;;;;;25.83;24.43;;;21.20;73.00;;;;;;4987662;28;20559;-68
2022/06/26 01:55:32;;;;;;;26.20;24.90;;;21.20;73.30;;;;;;4987644;28;20556;-68
2022/06/26 01:58:01;;;;;;;27.73;26.23;;;21.30;73.30;;;;;;4986896;28;20563;-68
2022/06/26 02:00:29;;;;;;;26.13;24.83;;;21.20;73.30;;;;;;4986764;28;20954;-67
2022/06/26 02:02:56;;;;;;;26.10;24.73;;;21.30;73.10;;;;;;4986441;28;20464;-69
2022/06/26 02:05:23;;;;;;;26.33;24.93;;;21.30;73.40;;;;;;4988902;28;20827;-68
2022/06/26 02:07:50;;;;;;;29.07;27.47;;;21.30;73.10;;;;;;4991578;28;20600;-73
2022/06/26 02:15:49;;;;;;;26.80;25.30;;;21.20;73.50;;;;;;4991882;28;20453;-70
2022/06/26 02:18:16;;;;;;;26.70;25.10;;;21.20;73.50;;;;;;4992067;28;20491;-73
2022/06/26 02:20:43;;;;;;;25.17;23.60;;;21.10;73.70;;;;;;4990329;28;20546;-72
2022/06/26 02:23:10;;;;;;;26.43;24.70;;;21.10;74.00;;;;;;4989318;28;20547;-72
2022/06/26 02:25:38;;;;;;;26.40;24.80;;;21.10;74.20;;;;;;4992155;28;20469;-72
2022/06/26 02:28:07;;;;;;;28.23;26.50;;;21.10;74.50;;;;;;4991227;28;20517;-73
2022/06/26 02:30:34;;;;;;;26.27;24.67;;;21.00;75.10;;;;;;4983995;28;20471;-71
2022/06/26 02:33:01;;;;;;;26.00;24.70;;;20.90;75.60;;;;;;4988790;28;20547;-75
2022/06/26 02:35:29;;;;;;;25.97;24.50;;;20.70;76.20;;;;;;4990388;28;20463;-72
2022/06/26 02:37:57;;;;;;;26.00;24.50;;;20.60;76.80;;;;;;4990576;28;20486;-71
2022/06/26 02:40:24;;;;;;;25.50;24.20;;;20.50;77.00;;;;;;4989897;28;20511;-68
2022/06/26 02:42:52;;;;;;;25.70;24.40;;;20.40;77.30;;;;;;4989324;28;20559;-68
2022/06/26 02:45:20;;;;;;;25.83;24.53;;;20.40;77.50;;;;;;4991221;28;20886;-69
2022/06/26 02:47:48;;;;;;;24.60;23.40;;;20.40;77.60;;;;;;4988806;28;20476;-68
2022/06/26 02:50:15;;;;;;;25.20;23.60;;;20.40;77.40;;;;;;4988750;28;20570;-67
2022/06/26 02:52:42;;;;;;;25.93;24.43;;;20.30;77.40;;;;;;4990472;28;20543;-69
2022/06/26 02:55:10;;;;;;;24.67;23.43;;;20.40;77.50;;;;;;4990185;28;20576;-68
2022/06/26 02:57:37;;;;;;;25.70;24.40;;;20.40;77.60;;;;;;4991751;28;20574;-73
2022/06/26 03:00:05;;;;;;;25.47;24.17;;;20.40;77.50;;;;;;4988402;28;20464;-71
2022/06/26 03:02:34;;;;;;;25.10;23.80;;;20.40;77.50;;;;;;4989685;28;20466;-72
2022/06/26 03:05:01;;;;;;;25.47;24.17;;;20.50;77.40;;;;;;4990902;28;20556;-70
2022/06/26 03:07:28;;;;;;;26.47;25.07;;;20.40;77.70;;;;;;4990944;28;20472;-74
2022/06/26 03:09:55;;;;;;;25.13;23.83;;;20.40;77.60;;;;;;4988654;28;20481;-71
2022/06/26 03:12:22;;;;;;;25.87;24.47;;;20.40;77.90;;;;;;4989619;28;20459;-72
2022/06/26 03:14:49;;;;;;;26.20;24.80;;;20.40;77.90;;;;;;4989363;28;20495;-71
2022/06/26 03:17:16;;;;;;;25.37;24.07;;;20.40;77.90;;;;;;4990552;28;20514;-75
2022/06/26 03:19:44;;;;;;;24.70;23.50;;;20.40;78.00;;;;;;4988816;28;20598;-71
2022/06/26 03:22:11;;;;;;;25.53;24.13;;;20.40;78.20;;;;;;4990233;28;20538;-72
2022/06/26 03:24:38;;;;;;;25.00;23.70;;;20.30;78.30;;;;;;4990041;28;20539;-70
2022/06/26 03:27:06;;;;;;;25.23;23.93;;;20.30;78.50;;;;;;4990943;28;20574;-68
2022/06/26 03:29:33;;;;;;;25.23;23.83;;;20.30;78.50;;;;;;4988033;28;20568;-68
2022/06/26 03:32:00;;;;;;;26.00;24.70;;;20.30;78.70;;;;;;4989474;28;20456;-69
2022/06/26 03:34:27;;;;;;;26.20;24.77;;;20.30;78.80;;;;;;4990195;28;20462;-68
2022/06/26 03:36:55;;;;;;;26.00;24.70;;;20.30;78.80;;;;;;4990218;28;20576;-68
2022/06/26 03:39:22;;;;;;;25.60;24.10;;;20.30;78.90;;;;;;4987711;28;20543;-68
2022/06/26 03:42:00;;;;;;;25.83;24.43;;;20.30;78.80;;;;;;4988653;28;20467;-68
2022/06/26 03:44:28;;;;;;;26.53;24.80;;;20.30;78.80;;;;;;4987399;28;20455;-68
2022/06/26 03:46:55;;;;;;;25.03;23.73;;;20.30;78.90;;;;;;4988565;28;20486;-68
2022/06/26 03:49:22;;;;;;;24.90;23.67;;;20.40;78.80;;;;;;4987632;28;20488;-69
2022/06/26 03:51:49;;;;;;;24.70;23.40;;;20.50;78.40;;;;;;4990059;28;20511;-68
2022/06/26 03:54:19;;;;;;;25.17;23.80;;;20.60;78.30;;;;;;4989464;28;20557;-67
2022/06/26 03:56:46;;;;;;;25.00;23.60;;;20.80;78.20;;;;;;4990228;28;20566;-68
2022/06/26 03:59:13;;;;;;;25.33;24.03;;;21.30;76.80;;;;;;4987325;28;21146;-68
2022/06/26 04:01:40;;;;;;;25.27;23.97;;;21.80;75.00;;;;;;4989457;28;20497;-68
2022/06/26 04:04:07;;;;;;;26.60;25.20;;;22.40;72.90;;;;;;4988076;28;20464;-69
2022/06/26 04:06:34;;;;;;;29.70;27.90;;;22.90;71.00;;;;;;4990617;28;20548;-68
2022/06/26 04:09:01;;;;;;;27.00;25.60;;;22.90;71.00;;;;;;4987069;28;20478;-68
2022/06/26 04:11:29;;;;;;;26.07;24.67;;;22.90;71.00;;;;;;4988262;28;20465;-68
2022/06/26 04:13:56;;;;;;;26.73;25.20;;;22.70;71.10;;;;;;4988185;28;20860;-68
2022/06/26 04:16:23;;;;;;;26.43;24.83;;;22.40;71.50;;;;;;4981648;28;20723;-69
2022/06/26 04:18:51;;;;;;;26.07;24.67;;;22.10;72.60;;;;;;4988144;28;20988;-68
2022/06/26 04:21:18;;;;;;;26.53;24.93;;;21.80;73.50;;;;;;4988086;28;20546;-68
2022/06/26 04:23:45;;;;;;;26.27;24.87;;;21.70;73.90;;;;;;4986496;28;20577;-68
2022/06/26 04:26:12;;;;;;;26.47;24.97;;;21.40;74.70;;;;;;4989922;28;20485;-69
2022/06/26 04:28:40;;;;;;;26.63;25.03;;;21.20;75.50;;;;;;4986666;28;20844;-68
2022/06/26 04:31:07;;;;;;;28.30;26.70;;;21.10;76.30;;;;;;4988393;28;20467;-69
2022/06/26 04:33:34;;;;;;;26.23;24.73;;;21.00;76.70;;;;;;4986400;28;20845;-68
2022/06/26 04:36:01;;;;;;;30.37;28.60;;;21.00;76.90;;;;;;4990452;28;20468;-68
2022/06/26 04:38:28;;;;;;;29.77;27.97;;;21.00;77.00;;;;;;4986727;28;20568;-68
2022/06/26 04:40:54;;;;;;;26.23;24.83;;;21.00;77.00;;;;;;4986962;28;20462;-68
2022/06/26 04:43:21;;;;;;;27.00;25.37;;;21.00;76.80;;;;;;4988035;28;20829;-68
2022/06/26 04:45:50;;;;;;;25.27;23.93;;;21.00;76.80;;;;;;4989139;28;20545;-72
2022/06/26 04:48:17;;;;;;;25.97;24.33;;;21.10;76.80;;;;;;4987682;28;20533;-72
2022/06/26 04:50:44;;;;;;;25.70;24.30;;;21.20;76.50;;;;;;4986420;28;21143;-72
2022/06/26 04:53:10;;;;;;;25.33;24.03;;;21.20;76.70;;;;;;4988476;28;21297;-70
2022/06/26 04:55:37;;;;;;;25.40;23.90;;;21.30;76.60;;;;;;4989033;28;20847;-71
2022/06/26 04:58:04;;;;;;;25.90;24.50;;;21.30;76.30;;;;;;4988467;28;20582;-70
2022/06/26 05:00:32;;;;;;;26.83;25.43;;;21.30;76.40;;;;;;4985977;28;20536;-71
2022/06/26 05:03:00;;;;;;;25.40;24.03;;;21.50;75.80;;;;;;4987660;28;20549;-71
2022/06/26 05:05:27;;;;;;;25.43;24.03;;;21.50;75.70;;;;;;4989453;28;20549;-68
2022/06/26 05:07:54;;;;;;;25.60;24.17;;;21.40;75.60;;;;;;4988366;28;20569;-68
2022/06/26 05:10:21;;;;;;;25.93;24.60;;;21.30;76.20;;;;;;4985449;28;20570;-71
2022/06/26 05:12:48;;;;;;;25.70;24.10;;;21.20;76.50;;;;;;4987036;28;20480;-70
2022/06/26 05:15:16;;;;;;;25.40;24.10;;;21.20;76.90;;;;;;4989541;28;20465;-70
2022/06/26 05:17:43;;;;;;;26.60;25.00;;;21.20;77.40;;;;;;4987245;28;20483;-72
2022/06/26 05:20:12;;;;;;;25.60;24.20;;;21.30;77.40;;;;;;4989193;28;20472;-73
2022/06/26 05:22:40;;;;;;;25.03;23.63;;;21.40;77.00;;;;;;4985607;28;20480;-70
2022/06/26 05:25:07;;;;;;;25.37;24.07;;;21.50;76.50;;;;;;4978666;28;20565;-71
2022/06/26 05:27:34;;;;;;;26.10;24.50;;;21.70;75.20;;;;;;4986998;28;20561;-68
2022/06/26 05:30:01;;;;;;;27.33;25.83;;;21.70;75.10;;;;;;4987197;28;20569;-70
2022/06/26 05:32:28;;;;;;;26.43;24.93;;;21.80;75.30;;;;;;4984813;28;20531;-68
2022/06/26 05:34:55;;;;;;;26.70;25.30;;;21.70;76.10;;;;;;4990118;28;20582;-68
2022/06/26 05:37:23;;;;;;;27.67;26.17;;;21.80;76.00;;;;;;4987120;28;20606;-68
2022/06/26 05:39:50;;;;;;;26.90;25.50;;;21.90;75.50;;;;;;4986993;28;21000;-71
2022/06/26 05:42:17;;;;;;;26.40;25.00;;;21.90;75.00;;;;;;4990004;28;20906;-75
2022/06/26 05:44:44;;;;;;;26.50;25.10;;;21.90;74.90;;;;;;4993161;28;20459;-70
2022/06/26 05:47:11;;;;;;;25.80;24.50;;;21.70;75.60;;;;;;4991888;28;20562;-74
2022/06/26 05:49:38;;;;;;;26.40;24.70;;;21.70;75.70;;;;;;4990327;28;20570;-69
2022/06/26 05:52:05;;;;;;;25.80;24.50;;;21.70;75.90;;;;;;4990640;28;20562;-68
2022/06/26 05:54:34;;;;;;;27.93;26.33;;;21.70;76.10;;;;;;4989894;28;20562;-70
2022/06/26 05:57:01;;;;;;;27.10;25.50;;;21.80;76.10;;;;;;4992105;28;20518;-69
2022/06/26 05:59:28;;;;;;;26.57;25.07;;;21.90;76.10;;;;;;4990418;28;20952;-69
2022/06/26 06:01:55;;;;;;;29.03;27.30;;;22.00;75.80;;;;;;4989560;28;21235;-69
2022/06/26 06:04:22;;;;;;;27.20;25.53;;;22.10;75.60;;;;;;4991690;28;20451;-69
2022/06/26 06:06:49;;;;;;;26.83;25.30;;;22.20;75.60;;;;;;4989055;28;20482;-69
2022/06/26 06:09:15;;;;;;;27.20;25.70;;;22.40;75.00;;;;;;4984782;28;20464;-71
2022/06/26 06:11:44;;;;;;;28.23;26.63;;;22.40;74.20;;;;;;4987039;28;20474;-73
2022/06/26 06:14:11;;;;;;;28.07;26.20;;;22.50;74.20;;;;;;4987857;28;20468;-75
2022/06/26 06:16:37;;;;;;;26.30;24.90;;;22.70;73.40;;;;;;4988736;28;20464;-77
2022/06/26 06:19:04;;;;;;;26.40;24.80;;;22.80;72.70;;;;;;4987198;28;20620;-77
2022/06/26 06:21:31;;;;;;;25.97;24.57;;;22.80;72.00;;;;;;4995362;28;20465;-78
2022/06/26 06:23:58;;;;;;;25.70;24.27;;;23.00;71.40;;;;;;4991801;28;20534;-79
2022/06/26 06:26:26;;;;;;;26.67;25.27;;;23.10;70.40;;;;;;4989466;28;20549;-75
2022/06/26 06:28:54;;;;;;;26.17;24.67;;;23.10;69.40;;;;;;4987778;28;20516;-74
2022/06/26 06:31:21;;;;;;;27.60;26.03;;;23.30;67.90;;;;;;4988206;28;20496;-74
2022/06/26 06:33:48;;;;;;;29.07;27.47;;;23.30;67.00;;;;;;4991802;28;20464;-76
2022/06/26 06:36:15;;;;;;;26.20;24.70;;;23.40;64.90;;;;;;4989730;28;20556;-74
2022/06/26 06:38:42;;;;;;;26.83;25.33;;;23.50;65.10;;;;;;4988259;28;20497;-75
2022/06/26 06:41:10;;;;;;;27.53;26.00;;;23.40;64.10;;;;;;4989278;28;20460;-74
2022/06/26 06:43:37;;;;;;;26.70;24.93;;;23.40;64.00;;;;;;4988247;28;20563;-75
2022/06/26 06:46:05;;;;;;;26.93;25.43;;;23.50;64.20;;;;;;4991184;28;20592;-76
2022/06/26 06:48:34;;;;;;;28.37;26.87;;;23.50;64.20;;;;;;4986781;28;20564;-74
2022/06/26 06:51:01;;;;;;;25.97;24.57;;;23.40;64.50;;;;;;4989795;28;21052;-75
2022/06/26 06:53:27;;;;;;;25.60;24.30;;;23.30;64.50;;;;;;4991459;28;20983;-78
2022/06/26 06:55:54;;;;;;;26.53;25.07;;;23.20;65.20;;;;;;4991841;28;20469;-76
2022/06/26 06:58:21;;;;;;;26.67;25.27;;;23.10;65.50;;;;;;4993330;28;20474;-74
2022/06/26 07:00:48;;;;;;;27.73;26.13;;;23.20;65.10;;;;;;4990103;28;20454;-73
2022/06/26 07:03:18;;;;;;;27.60;26.10;;;23.30;65.40;;;;;;4988106;28;20513;-75
2022/06/26 07:05:45;;;;;;;27.23;25.73;;;23.20;65.30;;;;;;4982451;28;20588;-75
2022/06/26 07:08:13;;;;;;;27.53;26.03;;;23.10;65.70;;;;;;4985688;28;20494;-72
2022/06/26 07:10:41;;;;;;;26.67;25.27;;;23.00;66.20;;;;;;4987169;28;21196;-73
2022/06/26 07:13:10;;;;;;;26.57;25.07;;;23.10;66.00;;;;;;4987795;28;20473;-74
2022/06/26 07:15:37;;;;;;;25.50;24.20;;;23.10;65.60;;;;;;4985507;28;20453;-74
2022/06/26 07:18:04;;;;;;;26.13;24.83;;;23.20;64.20;;;;;;4987097;28;20492;-74
2022/06/26 07:20:32;;;;;;;26.10;24.70;;;23.40;64.30;;;;;;4987901;28;20458;-74
2022/06/26 07:23:00;;;;;;;26.60;25.20;;;23.30;64.70;;;;;;4988756;28;20560;-74
2022/06/26 07:25:28;;;;;;;27.70;26.20;;;23.20;64.00;;;;;;4988359;28;20925;-72
2022/06/26 07:27:55;;;;;;;27.90;26.43;;;23.10;64.00;;;;;;4987565;28;20493;-74
2022/06/26 07:30:22;;;;;;;27.07;25.57;;;23.00;64.60;;;;;;4987445;28;20504;-73
2022/06/26 07:32:49;;;;;;;27.63;26.03;;;23.00;64.40;;;;;;4988198;28;20497;-73
2022/06/26 07:35:15;;;;;;;26.97;25.57;;;23.10;64.50;;;;;;4989364;28;20548;-72
2022/06/26 07:37:46;;;;;;;27.03;25.53;;;23.20;64.90;;;;;;4988558;28;20500;-71
2022/06/26 07:40:13;;;;;;;27.80;26.17;;;23.30;64.90;;;;;;4985876;28;20459;-75
2022/06/26 07:42:40;;;;;;;27.20;25.80;;;23.40;64.50;;;;;;4988382;28;21228;-73
2022/06/26 07:45:08;;;;;;;27.63;26.20;;;23.60;63.50;;;;;;4987360;28;20577;-74
2022/06/26 07:47:38;;;;;;;27.00;25.40;;;23.60;63.40;;;;;;4986543;28;20555;-77
2022/06/26 07:50:06;;;;;;;27.50;25.83;;;23.70;62.60;;;;;;4987324;28;20573;-73
2022/06/26 07:52:33;;;;;;;28.10;26.60;;;23.80;62.10;;;;;;4987941;28;20567;-73
2022/06/26 07:55:01;;;;;;;27.53;26.13;;;23.80;62.90;;;;;;4985662;28;20461;-74
2022/06/26 07:57:28;;;;;;;27.77;26.27;;;23.90;63.00;;;;;;4986847;28;20486;-73
2022/06/26 07:59:55;;;;;;;26.70;25.30;;;24.00;62.70;;;;;;4987450;28;20552;-73
2022/06/26 08:02:22;;;;;;;27.37;25.87;;;24.20;62.50;;;;;;4986080;28;20470;-75
2022/06/26 08:04:49;;;;;;;26.80;25.30;;;24.10;61.80;;;;;;4990626;28;20466;-76
2022/06/26 08:07:17;;;;;;;28.50;27.10;;;24.00;62.20;;;;;;4987669;28;20985;-74
2022/06/26 08:09:44;;;;;;;28.47;26.97;;;24.00;62.60;;;;;;4986471;28;20454;-75
2022/06/26 08:12:12;;;;;;;27.60;26.20;;;24.20;62.40;;;;;;4986535;28;20960;-78
2022/06/26 08:14:39;;;;;;;28.67;27.07;;;24.40;61.50;;;;;;4980282;28;20565;-76
2022/06/26 08:17:06;;;;;;;29.70;28.00;;;24.60;61.40;;;;;;4987463;28;20521;-74
2022/06/26 08:19:33;;;;;;;29.10;27.40;;;24.50;60.60;;;;;;4990747;28;20540;-77
2022/06/26 08:22:04;;;;;;;27.50;26.10;;;24.50;61.00;;;;;;4993639;28;20475;-76
2022/06/26 08:24:32;;;;;;;27.20;25.80;;;24.40;61.40;;;;;;4986098;28;20485;-72
2022/06/26 08:26:59;;;;;;;27.63;26.20;;;24.50;61.50;;;;;;4981801;28;20508;-72
2022/06/26 08:29:28;;;;;;;26.80;25.30;;;24.60;61.40;;;;;;4983984;28;20476;-72
2022/06/26 08:31:55;;;;;;;27.43;25.93;;;24.80;61.00;;;;;;4984179;28;20968;-72
2022/06/26 08:34:22;;;;;;;28.97;27.27;;;24.90;60.90;;;;;;4986669;28;20936;-72
2022/06/26 08:36:49;;;;;;;27.20;25.57;;;25.00;60.50;;;;;;4987804;28;20493;-74
2022/06/26 08:39:15;;;;;;;27.50;26.10;;;25.00;60.30;;;;;;4983112;28;20453;-76
2022/06/26 08:41:44;;;;;;;27.10;25.73;;;24.80;60.50;;;;;;4987841;28;20458;-74
2022/06/26 08:44:12;;;;;;;27.20;25.80;;;24.90;60.70;;;;;;4984823;28;20459;-76
2022/06/26 08:46:42;;;;;;;28.90;27.20;;;25.00;60.50;;;;;;4988188;28;20529;-75
2022/06/26 08:49:12;;;;;;;27.10;25.67;;;25.00;59.80;;;;;;4983819;28;20954;-75
2022/06/26 08:51:40;;;;;;;27.90;26.30;;;25.00;60.20;;;;;;4986343;28;20569;-75
2022/06/26 08:54:09;;;;;;;25.80;24.50;;;24.90;60.70;;;;;;4986237;28;20817;-74
2022/06/26 08:56:38;;;;;;;27.20;25.70;;;24.90;60.10;;;;;;4985722;28;20875;-78
2022/06/26 08:59:05;;;;;;;26.90;25.50;;;24.80;60.60;;;;;;4986807;28;21090;-78
2022/06/26 09:01:32;;;;;;;26.77;25.37;;;24.80;60.80;;;;;;4986031;28;20464;-74
2022/06/26 09:04:01;;;;;;;27.50;25.60;;;25.00;60.80;;;;;;4987145;28;20545;-75
2022/06/26 09:06:27;;;;;;;27.33;25.50;;;25.00;60.30;;;;;;4983204;28;20458;-74
2022/06/26 09:08:54;;;;;;;26.37;25.00;;;25.00;60.80;;;;;;4983602;28;20462;-78
2022/06/26 09:11:22;;;;;;;28.00;26.50;;;25.10;60.00;;;;;;4983473;28;20554;-78
2022/06/26 09:13:53;;;;;;;26.70;25.30;;;24.80;60.70;;;;;;4984012;28;20537;-76
2022/06/26 09:16:29;;;;;;;26.90;25.50;;;24.80;61.30;;;;;;4986165;28;20912;-76
2022/06/26 09:18:56;;;;;;;28.27;26.77;;;25.20;61.00;;;;;;4983876;28;20466;-75
2022/06/26 09:21:28;;;;;;;28.23;26.73;;;25.20;60.30;;;;;;4980175;28;20518;-75
2022/06/26 09:23:55;;;;;;;27.30;25.80;;;25.30;60.00;;;;;;4975657;28;20477;-74
2022/06/26 09:26:22;;;;;;;26.50;25.10;;;25.40;60.20;;;;;;4983892;28;20868;-74
2022/06/26 09:28:49;;;;;;;26.77;25.40;;;25.60;59.50;;;;;;4985701;28;20574;-75
2022/06/26 09:31:21;;;;;;;28.07;26.47;;;25.60;58.90;;;;;;4987384;28;20875;-73
2022/06/26 09:33:48;;;;;;;27.20;25.70;;;25.60;58.80;;;;;;4978393;28;20856;-73
2022/06/26 09:36:16;;;;;;;28.33;26.60;;;25.60;58.90;;;;;;4988178;28;20473;-72
2022/06/26 09:38:50;;;;;;;27.63;26.03;;;25.50;59.10;;;;;;4984234;28;20609;-72
2022/06/26 09:41:17;;;;;;;27.10;25.60;;;25.50;59.10;;;;;;4985321;28;20461;-72
2022/06/26 09:43:45;;;;;;;29.20;26.83;;;25.60;58.70;;;;;;4981395;28;20471;-72
2022/06/26 09:46:14;;;;;;;27.00;25.50;;;25.80;58.20;;;;;;4986394;28;20466;-72
2022/06/26 09:48:43;;;;;;;29.43;27.83;;;25.70;57.90;;;;;;4985157;28;20516;-73
2022/06/26 09:51:12;;;;;;;26.23;24.83;;;25.70;58.30;;;;;;4983893;28;20505;-75
2022/06/26 09:53:40;;;;;;;27.40;25.80;;;26.00;57.60;;;;;;4986105;28;20914;-76
2022/06/26 09:56:09;;;;;;;28.03;26.43;;;25.80;57.80;;;;;;4985501;28;20547;-74
2022/06/26 09:58:36;;;;;;;26.70;25.30;;;26.00;57.80;;;;;;4983211;28;20504;-78
2022/06/26 10:06:45;;;;;;;27.40;25.90;;;26.60;55.70;;;;;;4980813;28;20773;-76
2022/06/26 10:09:13;;;;;;;29.00;27.40;;;26.50;56.30;;;;;;4983061;28;21463;-75
2022/06/26 10:11:42;;;;;;;27.10;25.50;;;26.20;56.30;;;;;;4984487;28;20512;-76
2022/06/26 10:14:14;;;;;;;25.13;23.83;;;26.10;56.90;;;;;;4986531;28;20526;-75
2022/06/26 10:17:15;;;;;;;26.80;25.30;;;26.20;57.10;;;;;;4986472;28;20494;-74
2022/06/26 10:19:45;;;;;;;26.70;25.30;;;26.50;56.60;;;;;;4985703;28;20492;-74
2022/06/26 10:22:12;;;;;;;27.43;25.93;;;26.20;57.20;;;;;;4984170;28;20457;-74
2022/06/26 10:24:53;;;;;;;26.90;25.40;;;26.30;57.20;;;;;;4984097;28;20461;-74
2022/06/26 10:27:27;;;;;;;26.43;25.03;;;26.30;56.80;;;;;;4989905;28;20840;-74
2022/06/26 10:30:07;;;;;;;26.50;25.00;;;26.30;57.50;;;;;;4986588;28;20468;-75
2022/06/26 10:32:36;;;;;;;27.40;25.80;;;26.50;56.80;;;;;;4986522;28;20517;-76
2022/06/26 10:35:06;;;;;;;26.30;24.90;;;26.80;56.70;;;;;;4987574;28;20468;-75
2022/06/26 10:37:46;;;;;;;27.60;25.97;;;26.90;56.80;;;;;;4988946;28;20528;-73
2022/06/26 10:42:52;;;;;;;26.90;25.40;;;27.00;56.50;;;;;;4988363;28;20464;-74
2022/06/26 10:43:14;;;;;;;27.67;26.13;;;26.90;56.70;;;;;;4983260;28;20457;-75
2022/06/26 10:45:45;;;;;;;28.27;26.67;;;26.70;56.90;;;;;;4989306;28;20469;-74
2022/06/26 10:48:20;;;;;;;28.07;26.47;;;26.60;57.40;;;;;;4982937;28;20486;-71
2022/06/26 10:50:56;;;;;;;27.70;26.20;;;26.70;57.30;;;;;;4987702;28;20460;-71
2022/06/26 10:53:25;;;;;;;27.27;25.77;;;26.70;57.50;;;;;;4986014;28;20547;-72
2022/06/26 10:55:53;;;;;;;27.30;25.80;;;26.70;56.60;;;;;;4989434;28;20460;-72
2022/06/26 10:58:25;;;;;;;28.33;26.73;;;26.60;56.60;;;;;;4985953;28;20548;-73
2022/06/26 11:00:53;;;;;;;27.67;26.13;;;26.90;56.30;;;;;;4985802;28;20492;-73
2022/06/26 11:03:21;;;;;;;28.00;26.40;;;27.10;55.90;;;;;;4983107;28;20644;-74
2022/06/26 11:05:57;;;;;;;28.00;26.40;;;27.30;55.70;;;;;;4989398;28;20461;-74
2022/06/26 11:08:27;;;;;;;27.90;26.30;;;27.20;55.90;;;;;;4986761;28;20485;-74
2022/06/26 11:10:54;;;;;;;28.87;27.27;;;27.40;56.10;;;;;;4987688;28;20553;-72
2022/06/26 11:13:23;;;;;;;27.43;25.63;;;27.60;54.90;;;;;;4986218;28;20470;-72
2022/06/26 11:15:50;;;;;;;28.57;26.87;;;27.80;54.60;;;;;;4990564;28;20465;-72
2022/06/26 11:18:17;;;;;;;29.10;27.40;;;27.70;55.00;;;;;;4987459;28;20477;-75
2022/06/26 11:20:50;;;;;;;27.43;25.83;;;27.80;54.30;;;;;;4987630;28;20556;-74
2022/06/26 11:23:24;;;;;;;27.20;25.70;;;27.70;54.60;;;;;;4986621;28;20505;-76
2022/06/26 11:25:56;;;;;;;27.13;25.63;;;27.80;53.90;;;;;;4991378;28;20521;-76
2022/06/26 11:28:39;;;;;;;28.40;26.80;;;27.90;54.30;;;;;;4989990;28;20486;-79
2022/06/26 11:31:08;;;;;;;29.10;27.00;;;27.90;53.80;;;;;;4990630;28;20485;-74
2022/06/26 11:33:45;;;;;;;27.00;25.50;;;27.90;54.10;;;;;;4988604;28;20466;-74
2022/06/26 11:36:14;;;;;;;27.30;25.80;;;28.30;53.90;;;;;;4990275;28;20462;-74
2022/06/26 11:38:48;;;;;;;26.53;25.03;;;28.70;52.80;;;;;;4987194;28;20516;-71
2022/06/26 11:41:15;;;;;;;26.53;25.03;;;29.00;52.00;;;;;;4989348;28;20486;-72
2022/06/26 11:43:48;;;;;;;26.40;24.90;;;29.50;51.50;;;;;;4981415;28;20496;-70
2022/06/26 11:46:15;;;;;;;26.80;25.20;;;29.60;51.10;;;;;;4981792;28;20545;-74
2022/06/26 11:48:43;;;;;;;27.10;25.40;;;29.40;51.20;;;;;;4986644;28;20483;-73
2022/06/26 11:51:13;;;;;;;26.90;25.30;;;29.10;52.40;;;;;;4987086;28;20501;-71
2022/06/26 11:53:45;;;;;;;28.50;26.80;;;28.70;52.80;;;;;;4983137;28;20458;-73
2022/06/26 11:56:18;;;;;;;27.23;25.53;;;28.40;53.40;;;;;;4986168;28;20469;-73
2022/06/26 11:58:50;;;;;;;28.00;26.30;;;28.10;54.60;;;;;;4987241;28;20481;-76
2022/06/26 12:01:18;;;;;;;28.83;27.23;;;27.90;54.70;;;;;;4988177;28;20467;-73
2022/06/26 12:03:53;;;;;;;28.10;26.50;;;27.80;54.60;;;;;;4985869;28;20462;-74
2022/06/26 12:06:32;;;;;;;27.30;25.80;;;27.80;54.80;;;;;;4988473;28;20546;-73
2022/06/26 12:09:01;;;;;;;28.87;27.17;;;27.60;55.40;;;;;;4987649;28;20545;-75
2022/06/26 12:11:28;;;;;;;28.40;26.80;;;27.60;55.50;;;;;;4989082;28;20485;-74
2022/06/26 12:13:56;;;;;;;27.87;26.27;;;27.70;55.50;;;;;;4986223;28;20466;-75
2022/06/26 12:16:23;;;;;;;28.07;26.47;;;28.00;54.80;;;;;;4987445;28;20548;-75
2022/06/26 12:18:50;;;;;;;27.63;26.10;;;28.10;54.60;;;;;;4985920;28;20466;-73
2022/06/26 12:21:19;;;;;;;28.10;26.40;;;28.20;54.70;;;;;;4987214;28;20470;-72
2022/06/26 12:23:50;;;;;;;27.93;26.43;;;28.10;53.60;;;;;;4985719;28;20585;-72
2022/06/26 12:26:19;;;;;;;27.63;26.03;;;27.90;53.80;;;;;;4988880;28;20462;-76
2022/06/26 12:28:50;;;;;;;27.20;25.60;;;28.10;53.90;;;;;;4988417;28;20450;-72
2022/06/26 12:31:19;;;;;;;26.50;25.00;;;28.20;53.80;;;;;;4987395;28;20458;-76
2022/06/26 12:33:47;;;;;;;27.83;26.23;;;28.20;53.50;;;;;;4986469;28;20464;-74
2022/06/26 12:36:16;;;;;;;26.00;24.60;;;28.10;53.80;;;;;;4988833;28;20524;-73
2022/06/26 12:38:44;;;;;;;27.50;25.90;;;28.10;53.00;;;;;;4980021;28;20480;-80
2022/06/26 12:41:17;;;;;;;26.00;24.60;;;27.90;52.80;;;;;;4988054;28;20575;-76
2022/06/26 12:43:45;;;;;;;26.20;24.70;;;28.10;52.50;;;;;;4985792;28;20481;-75
2022/06/26 12:46:12;;;;;;;26.60;25.10;;;28.20;52.60;;;;;;4987239;28;20466;-73